Time;durP1;ratioP1;P1;durP2;ratioP2;P2;SDS_P1;SDS_P2;PMS_P1;PMS_P2;Temp;Humidity;BMP_temperature;BMP_pressure;BME280_temperature;BME280_humidity;BME280_pressure;Samples;Min_cycle;Max_cycle;Signal;HPM_P1;HPM_P2
2022/06/26 00:01:39;;;;;;;;;;;24.80;96.90;;;;;;5074241;28;19908;-56
2022/06/26 00:04:04;;;;;;;;;;;24.80;96.90;;;;;;5073878;28;19936;-55
2022/06/26 00:06:30;;;;;;;;;;;24.90;97.00;;;;;;5073961;28;20003;-54
2022/06/26 00:08:55;;;;;;;;;;;24.80;96.90;;;;;;5074177;28;20054;-54
2022/06/26 00:11:21;;;;;;;;;;;24.80;96.90;;;;;;5073840;28;19993;-54
2022/06/26 00:13:48;;;;;;;;;;;24.80;96.90;;;;;;5074077;28;19908;-55
2022/06/26 00:16:14;;;;;;;;;;;24.80;97.00;;;;;;5056196;28;19919;-55
2022/06/26 00:18:41;;;;;;;;;;;24.80;97.00;;;;;;5074018;28;20275;-55
2022/06/26 00:21:07;;;;;;;;;;;24.80;97.00;;;;;;5073525;28;19908;-54
2022/06/26 00:23:34;;;;;;;;;;;24.80;96.90;;;;;;5074031;28;20011;-52
2022/06/26 00:26:00;;;;;;;;;;;24.80;96.90;;;;;;5074018;28;20007;-56
2022/06/26 00:28:26;;;;;;;;;;;24.80;96.90;;;;;;5073677;28;19909;-55
2022/06/26 00:30:51;;;;;;;;;;;24.90;96.90;;;;;;5073872;28;19916;-54
2022/06/26 00:33:17;;;;;;;;;;;24.80;96.90;;;;;;5073943;28;19955;-55
2022/06/26 00:35:42;;;;;;;;;;;24.80;96.80;;;;;;5055904;28;19909;-53
2022/06/26 00:38:07;;;;;;;;;;;24.80;96.80;;;;;;5073825;28;19971;-56
2022/06/26 00:40:33;;;;;;;;;;;24.80;96.90;;;;;;5073585;28;19964;-55
2022/06/26 00:42:58;;;;;;;;;;;24.80;96.90;;;;;;5073565;28;20255;-54
2022/06/26 00:45:24;;;;;;;;;;;24.70;96.90;;;;;;5073664;28;19955;-56
2022/06/26 00:47:49;;;;;;;;;;;24.80;96.80;;;;;;5073816;28;19908;-55
2022/06/26 00:50:15;;;;;;;;;;;24.80;96.80;;;;;;5073717;28;19936;-54
2022/06/26 00:52:41;;;;;;;;;;;24.80;96.80;;;;;;5073536;28;19930;-52
2022/06/26 00:55:07;;;;;;;;;;;24.70;96.80;;;;;;5073701;28;19916;-56
2022/06/26 00:57:33;;;;;;;;;;;24.70;96.80;;;;;;5073183;28;20272;-55
2022/06/26 00:59:59;;;;;;;;;;;24.70;96.80;;;;;;5073325;28;20359;-54
2022/06/26 01:02:24;;;;;;;;;;;24.70;96.80;;;;;;5073351;28;20007;-54
2022/06/26 01:04:50;;;;;;;;;;;24.80;96.80;;;;;;5073644;28;20003;-56
2022/06/26 01:07:15;;;;;;;;;;;24.70;96.80;;;;;;5073391;28;20432;-55
2022/06/26 01:09:41;;;;;;;;;;;24.80;96.80;;;;;;5073323;28;20003;-55
2022/06/26 01:12:07;;;;;;;;;;;24.70;96.80;;;;;;5073309;28;20355;-55
2022/06/26 01:14:32;;;;;;;;;;;24.70;96.80;;;;;;5073594;28;19908;-55
2022/06/26 01:16:59;;;;;;;;;;;24.70;97.10;;;;;;5073375;28;19935;-55
2022/06/26 01:19:25;;;;;;;;;;;24.70;96.90;;;;;;5073569;28;19916;-54
2022/06/26 01:21:50;;;;;;;;;;;24.70;96.90;;;;;;5073485;28;19909;-56
2022/06/26 01:24:16;;;;;;;;;;;24.80;96.90;;;;;;5073253;28;19908;-55
2022/06/26 01:26:41;;;;;;;;;;;24.70;97.00;;;;;;5055383;28;20263;-55
2022/06/26 01:29:07;;;;;;;;;;;24.70;97.00;;;;;;5073289;28;19913;-56
2022/06/26 01:31:34;;;;;;;;;;;24.70;97.00;;;;;;5073381;28;19974;-54
2022/06/26 01:34:01;;;;;;;;;;;24.70;97.10;;;;;;5076242;28;19909;-54
2022/06/26 01:36:27;;;;;;;;;;;24.70;97.10;;;;;;5076723;28;19995;-55
2022/06/26 01:38:52;;;;;;;;;;;24.70;97.10;;;;;;5077165;28;20307;-54
2022/06/26 01:41:18;;;;;;;;;;;24.70;97.10;;;;;;5076924;28;19916;-54
2022/06/26 01:43:43;;;;;;;;;;;24.80;97.10;;;;;;5076747;28;19912;-56
2022/06/26 01:46:09;;;;;;;;;;;24.70;97.10;;;;;;5076666;28;19954;-55
2022/06/26 01:48:37;;;;;;;;;;;24.70;97.10;;;;;;5076393;28;19951;-54
2022/06/26 01:51:03;;;;;;;;;;;24.70;97.10;;;;;;5076693;28;19992;-55
2022/06/26 01:53:29;;;;;;;;;;;24.70;97.10;;;;;;5058678;28;19951;-55
2022/06/26 01:55:54;;;;;;;;;;;24.70;97.10;;;;;;5076380;28;19919;-53
2022/06/26 01:58:20;;;;;;;;;;;24.70;97.10;;;;;;5076086;28;19944;-55
2022/06/26 02:00:46;;;;;;;;;;;24.70;97.10;;;;;;5076418;28;19908;-51
2022/06/26 02:03:12;;;;;;;;;;;24.70;97.20;;;;;;5076451;28;20003;-53
2022/06/26 02:05:38;;;;;;;;;;;24.70;97.20;;;;;;5075976;28;20389;-56
2022/06/26 02:08:04;;;;;;;;;;;24.70;97.20;;;;;;5076206;28;19913;-54
2022/06/26 02:15:59;;;;;;;;;;;24.80;97.20;;;;;;5076348;28;20376;-55
2022/06/26 02:18:25;;;;;;;;;;;24.70;97.20;;;;;;5075762;28;19917;-56
2022/06/26 02:20:51;;;;;;;;;;;24.70;97.10;;;;;;5076480;28;20307;-54
2022/06/26 02:23:16;;;;;;;;;;;24.70;97.10;;;;;;5076082;28;19915;-55
2022/06/26 02:25:42;;;;;;;;;;;24.70;97.10;;;;;;5076358;28;19951;-53
2022/06/26 02:28:08;;;;;;;;;;;24.70;97.10;;;;;;5057987;28;19912;-53
2022/06/26 02:30:34;;;;;;;;;;;24.70;97.10;;;;;;5075769;28;20393;-55
2022/06/26 02:32:59;;;;;;;;;;;24.70;97.00;;;;;;5075608;28;19908;-54
2022/06/26 02:35:25;;;;;;;;;;;24.70;97.10;;;;;;5057882;28;20359;-55
2022/06/26 02:37:51;;;;;;;;;;;24.70;97.00;;;;;;5075942;28;19916;-54
2022/06/26 02:40:19;;;;;;;;;;;24.70;97.00;;;;;;5057810;28;19908;-56
2022/06/26 02:42:45;;;;;;;;;;;24.70;97.00;;;;;;5074970;28;19913;-55
2022/06/26 02:45:11;;;;;;;;;;;24.70;97.00;;;;;;5075562;28;19915;-55
2022/06/26 02:47:36;;;;;;;;;;;24.70;97.00;;;;;;5075633;28;19962;-54
2022/06/26 02:50:03;;;;;;;;;;;24.60;96.90;;;;;;5075802;28;19950;-55
2022/06/26 02:52:29;;;;;;;;;;;24.70;96.90;;;;;;5075195;28;20383;-53
2022/06/26 02:54:54;;;;;;;;;;;24.70;97.00;;;;;;5075168;28;19916;-54
2022/06/26 02:57:20;;;;;;;;;;;24.70;97.00;;;;;;5075450;28;20359;-55
2022/06/26 02:59:45;;;;;;;;;;;24.70;97.00;;;;;;5075132;28;19915;-55
2022/06/26 03:02:11;;;;;;;;;;;24.70;97.00;;;;;;5075222;28;19908;-53
2022/06/26 03:04:36;;;;;;;;;;;24.60;97.00;;;;;;5057360;28;19915;-55
2022/06/26 03:07:02;;;;;;;;;;;24.60;97.00;;;;;;5075215;28;19908;-56
2022/06/26 03:09:27;;;;;;;;;;;24.60;97.00;;;;;;5057236;28;19909;-53
2022/06/26 03:11:52;;;;;;;;;;;24.70;97.10;;;;;;5073864;28;19962;-55
2022/06/26 03:14:18;;;;;;;;;;;24.70;97.00;;;;;;5075022;28;19908;-55
2022/06/26 03:16:43;;;;;;;;;;;24.70;97.00;;;;;;5075220;28;19912;-55
2022/06/26 03:19:09;;;;;;;;;;;24.70;97.00;;;;;;5057046;28;19917;-55
2022/06/26 03:21:35;;;;;;;;;;;24.70;97.00;;;;;;5074925;28;20007;-53
2022/06/26 03:24:03;;;;;;;;;;;24.70;97.00;;;;;;5074590;28;19963;-53
2022/06/26 03:26:29;;;;;;;;;;;24.70;97.00;;;;;;5074787;28;20378;-52
2022/06/26 03:28:54;;;;;;;;;;;24.60;97.00;;;;;;5074694;28;19908;-54
2022/06/26 03:31:20;;;;;;;;;;;24.60;97.00;;;;;;5074740;28;20003;-54
2022/06/26 03:33:45;;;;;;;;;;;24.70;97.00;;;;;;5074389;28;20358;-53
2022/06/26 03:36:11;;;;;;;;;;;24.60;97.10;;;;;;5056804;28;19915;-56
2022/06/26 03:38:37;;;;;;;;;;;24.70;97.00;;;;;;5074319;28;20015;-53
2022/06/26 03:41:03;;;;;;;;;;;24.70;96.90;;;;;;5074321;28;19916;-55
2022/06/26 03:43:28;;;;;;;;;;;24.70;96.90;;;;;;5074210;28;19908;-55
2022/06/26 03:45:54;;;;;;;;;;;24.80;96.90;;;;;;5074895;28;20340;-54
2022/06/26 03:48:20;;;;;;;;;;;24.70;96.90;;;;;;5074560;28;20311;-54
2022/06/26 03:50:45;;;;;;;;;;;24.80;97.20;;;;;;5074503;28;19909;-56
2022/06/26 03:53:11;;;;;;;;;;;24.70;96.90;;;;;;5074339;28;20365;-59
2022/06/26 03:55:36;;;;;;;;;;;24.70;95.50;;;;;;5077954;28;19959;-54
2022/06/26 03:58:02;;;;;;;;;;;24.80;96.20;;;;;;5090191;28;19919;-54
2022/06/26 04:00:28;;;;;;;;;;;24.70;96.80;;;;;;5094795;28;19915;-54
2022/06/26 04:02:54;;;;;;;;;;;24.80;96.70;;;;;;5109411;28;19923;-54
2022/06/26 04:05:19;;;;;;;;;;;24.80;96.80;;;;;;5113749;28;20358;-51
2022/06/26 04:07:45;;;;;;;;;;;24.80;96.80;;;;;;5092466;28;20312;-54
2022/06/26 04:10:11;;;;;;;;;;;24.80;96.90;;;;;;5086236;28;19960;-54
2022/06/26 04:12:36;;;;;;;;;;;24.80;97.00;;;;;;5089496;28;19912;-52
2022/06/26 04:15:02;;;;;;;;;;;24.80;96.90;;;;;;5114699;28;19908;-54
2022/06/26 04:17:29;;;;;;;;;;;24.70;97.00;;;;;;5107313;28;20355;-54
2022/06/26 04:19:54;;;;;;;;;;;24.70;97.10;;;;;;5074736;28;20358;-54
2022/06/26 04:22:20;;;;;;;;;;;24.80;97.00;;;;;;5092292;28;19930;-53
2022/06/26 04:24:45;;;;;;;;;;;24.70;97.10;;;;;;5092236;28;19915;-53
2022/06/26 04:27:11;;;;;;;;;;;24.70;97.10;;;;;;5092161;28;20030;-55
2022/06/26 04:29:36;;;;;;;;;;;24.70;97.10;;;;;;5090184;28;19931;-52
2022/06/26 04:32:02;;;;;;;;;;;24.70;97.10;;;;;;5086705;28;19924;-55
2022/06/26 04:34:27;;;;;;;;;;;24.80;97.20;;;;;;5092662;28;19989;-54
2022/06/26 04:36:53;;;;;;;;;;;24.80;97.10;;;;;;5094132;28;20351;-53
2022/06/26 04:39:18;;;;;;;;;;;24.90;97.10;;;;;;5074624;28;19912;-52
2022/06/26 04:41:44;;;;;;;;;;;24.90;97.00;;;;;;5092804;28;19958;-56
2022/06/26 04:44:10;;;;;;;;;;;24.90;97.00;;;;;;5092670;28;19931;-52
2022/06/26 04:46:37;;;;;;;;;;;24.90;97.00;;;;;;5095519;28;19912;-55
2022/06/26 04:49:03;;;;;;;;;;;24.90;97.00;;;;;;5088870;28;19908;-55
2022/06/26 04:51:28;;;;;;;;;;;24.90;96.90;;;;;;5093010;28;19929;-55
2022/06/26 04:53:54;;;;;;;;;;;24.80;97.00;;;;;;5092510;28;19912;-55
2022/06/26 04:56:19;;;;;;;;;;;24.80;97.00;;;;;;5092832;28;19952;-53
2022/06/26 04:58:45;;;;;;;;;;;24.90;97.00;;;;;;5087956;28;20006;-54
2022/06/26 05:01:10;;;;;;;;;;;24.90;97.00;;;;;;5095733;28;20338;-54
2022/06/26 05:03:36;;;;;;;;;;;24.90;97.00;;;;;;5099444;28;19962;-56
2022/06/26 05:06:01;;;;;;;;;;;24.90;97.00;;;;;;5104381;28;20002;-56
2022/06/26 05:08:27;;;;;;;;;;;24.90;97.00;;;;;;5098125;28;20254;-52
2022/06/26 05:10:52;;;;;;;;;;;24.90;96.90;;;;;;5094461;28;19943;-54
2022/06/26 05:13:18;;;;;;;;;;;24.90;97.00;;;;;;5097973;28;20346;-53
2022/06/26 05:15:43;;;;;;;;;;;24.90;97.00;;;;;;5100437;28;19919;-55
2022/06/26 05:18:09;;;;;;;;;;;24.90;97.00;;;;;;5111207;28;20405;-55
2022/06/26 05:20:34;;;;;;;;;;;24.90;97.00;;;;;;5098691;28;20042;-54
2022/06/26 05:23:00;;;;;;;;;;;24.90;97.00;;;;;;5097171;28;19904;-55
2022/06/26 05:25:25;;;;;;;;;;;24.90;97.10;;;;;;5097385;28;19904;-53
2022/06/26 05:27:51;;;;;;;;;;;24.90;97.10;;;;;;5103381;28;19914;-54
2022/06/26 05:30:16;;;;;;;;;;;24.90;97.10;;;;;;5117316;28;19914;-55
2022/06/26 05:32:42;;;;;;;;;;;24.90;97.00;;;;;;5103398;28;19926;-59
2022/06/26 05:35:07;;;;;;;;;;;25.00;97.10;;;;;;5105749;28;20006;-59
2022/06/26 05:37:33;;;;;;;;;;;25.00;97.10;;;;;;5107137;28;19935;-60
2022/06/26 05:39:58;;;;;;;;;;;24.90;97.10;;;;;;5096694;28;19947;-60
2022/06/26 05:42:24;;;;;;;;;;;25.00;97.10;;;;;;5097018;28;20002;-60
2022/06/26 05:44:49;;;;;;;;;;;25.00;97.10;;;;;;5113408;28;19908;-51
2022/06/26 05:47:15;;;;;;;;;;;25.00;97.10;;;;;;5095673;28;19904;-49
2022/06/26 05:49:40;;;;;;;;;;;25.10;97.10;;;;;;5096729;28;20339;-53
2022/06/26 05:52:06;;;;;;;;;;;25.00;95.80;;;;;;5102070;28;20015;-47
2022/06/26 05:54:32;;;;;;;;;;;24.90;96.00;;;;;;5098590;28;20339;-50
2022/06/26 05:56:57;;;;;;;;;;;24.80;95.90;;;;;;5096521;28;19916;-51
2022/06/26 05:59:23;;;;;;;;;;;24.80;95.90;;;;;;5096401;28;19949;-49
2022/06/26 06:01:48;;;;;;;;;;;24.80;96.00;;;;;;5078273;28;19904;-49
2022/06/26 06:04:14;;;;;;;;;;;24.90;96.20;;;;;;5102839;28;20014;-53
2022/06/26 06:06:39;;;;;;;;;;;25.00;96.30;;;;;;5111876;28;19908;-51
2022/06/26 06:09:05;;;;;;;;;;;25.00;96.40;;;;;;5110115;28;19908;-54
2022/06/26 06:11:31;;;;;;;;;;;24.90;95.50;;;;;;5084943;28;19912;-57
2022/06/26 06:13:56;;;;;;;;;;;24.80;95.70;;;;;;5107763;28;20362;-55
2022/06/26 06:16:22;;;;;;;;;;;24.90;96.00;;;;;;5099896;28;19912;-58
2022/06/26 06:18:47;;;;;;;;;;;24.90;96.10;;;;;;5083656;28;19969;-57
2022/06/26 06:21:13;;;;;;;;;;;25.00;96.20;;;;;;5107472;28;20264;-57
2022/06/26 06:23:39;;;;;;;;;;;25.00;96.20;;;;;;5099057;28;19917;-58
2022/06/26 06:26:05;;;;;;;;;;;25.00;96.30;;;;;;5076161;28;19958;-57
2022/06/26 06:28:30;;;;;;;;;;;25.00;96.30;;;;;;5076139;28;19915;-57
2022/06/26 06:30:56;;;;;;;;;;;25.00;96.30;;;;;;5075556;28;19999;-56
2022/06/26 06:33:21;;;;;;;;;;;25.00;96.30;;;;;;5075498;28;20023;-55
2022/06/26 06:35:48;;;;;;;;;;;25.10;96.40;;;;;;5075549;28;20236;-53
2022/06/26 06:38:14;;;;;;;;;;;25.10;96.40;;;;;;5075359;28;19920;-53
2022/06/26 06:40:40;;;;;;;;;;;25.10;96.40;;;;;;5075116;28;19915;-55
2022/06/26 06:43:09;;;;;;;;;;;25.10;96.40;;;;;;5075508;28;19916;-55
2022/06/26 06:45:34;;;;;;;;;;;25.10;96.40;;;;;;5075485;28;20432;-57
2022/06/26 06:48:00;;;;;;;;;;;25.10;96.40;;;;;;5075402;28;19909;-54
2022/06/26 06:50:25;;;;;;;;;;;25.10;96.40;;;;;;5075021;28;20409;-53
2022/06/26 06:52:51;;;;;;;;;;;25.10;96.40;;;;;;5075229;28;19912;-53
2022/06/26 06:55:16;;;;;;;;;;;25.10;96.40;;;;;;5075032;28;19908;-56
2022/06/26 06:57:42;;;;;;;;;;;25.10;96.40;;;;;;5075057;28;20038;-53
2022/06/26 07:00:07;;;;;;;;;;;25.10;96.40;;;;;;5074872;28;19919;-55
2022/06/26 07:02:35;;;;;;;;;;;25.10;96.40;;;;;;5074666;28;19977;-56
2022/06/26 07:05:01;;;;;;;;;;;25.10;96.40;;;;;;5075274;28;19931;-57
2022/06/26 07:07:26;;;;;;;;;;;25.10;96.50;;;;;;5074767;28;20359;-57
2022/06/26 07:09:52;;;;;;;;;;;25.10;96.50;;;;;;5074866;28;19908;-57
2022/06/26 07:12:17;;;;;;;;;;;25.10;96.50;;;;;;5056760;28;20378;-56
2022/06/26 07:14:43;;;;;;;;;;;25.10;96.50;;;;;;5073554;28;19909;-56
2022/06/26 07:17:09;;;;;;;;;;;25.10;96.50;;;;;;5074325;28;19916;-57
2022/06/26 07:19:34;;;;;;;;;;;25.10;96.50;;;;;;5074760;28;19920;-57
2022/06/26 07:22:00;;;;;;;;;;;25.10;96.50;;;;;;5074766;28;20275;-58
2022/06/26 07:24:26;;;;;;;;;;;25.10;96.50;;;;;;5074505;28;19915;-57
2022/06/26 07:26:51;;;;;;;;;;;25.10;96.50;;;;;;5074557;28;19912;-56
2022/06/26 07:29:17;;;;;;;;;;;25.10;96.50;;;;;;5074195;28;20387;-55
2022/06/26 07:31:42;;;;;;;;;;;25.10;96.50;;;;;;5074422;28;19909;-57
2022/06/26 07:34:15;;;;;;;;;;;25.10;96.50;;;;;;5074226;28;20299;-55
2022/06/26 07:36:41;;;;;;;;;;;25.10;96.50;;;;;;5074056;28;20386;-54
2022/06/26 07:39:07;;;;;;;;;;;25.10;96.50;;;;;;5074081;28;20322;-57
2022/06/26 07:41:33;;;;;;;;;;;25.10;96.50;;;;;;5074147;28;19908;-56
2022/06/26 07:43:58;;;;;;;;;;;25.10;96.50;;;;;;5073999;28;19916;-56
2022/06/26 07:46:24;;;;;;;;;;;25.10;96.40;;;;;;5073851;28;19912;-54
2022/06/26 07:48:49;;;;;;;;;;;25.10;96.40;;;;;;5074045;28;19908;-56
2022/06/26 07:51:15;;;;;;;;;;;25.10;96.50;;;;;;5074535;28;19992;-53
2022/06/26 07:53:40;;;;;;;;;;;25.10;96.50;;;;;;5074237;28;20309;-56
2022/06/26 07:56:06;;;;;;;;;;;25.10;96.50;;;;;;5074048;28;19920;-57
2022/06/26 07:58:31;;;;;;;;;;;25.10;96.50;;;;;;5074068;28;19921;-56
2022/06/26 08:00:58;;;;;;;;;;;25.10;96.50;;;;;;5073064;28;20285;-56
2022/06/26 08:03:24;;;;;;;;;;;25.10;96.50;;;;;;5073519;28;19951;-57
2022/06/26 08:05:50;;;;;;;;;;;25.10;96.40;;;;;;5073992;28;19909;-55
2022/06/26 08:08:15;;;;;;;;;;;25.10;96.50;;;;;;5056121;28;19908;-56
2022/06/26 08:10:41;;;;;;;;;;;25.10;96.50;;;;;;5073979;28;19970;-57
2022/06/26 08:13:07;;;;;;;;;;;25.10;96.50;;;;;;5073991;28;20008;-57
2022/06/26 08:15:33;;;;;;;;;;;25.10;96.50;;;;;;5073895;28;19951;-55
2022/06/26 08:17:58;;;;;;;;;;;25.10;96.50;;;;;;5072795;28;20006;-56
2022/06/26 08:20:24;;;;;;;;;;;25.10;96.50;;;;;;5073601;28;19938;-57
2022/06/26 08:22:49;;;;;;;;;;;25.10;96.40;;;;;;5073777;28;19909;-58
2022/06/26 08:25:15;;;;;;;;;;;25.10;96.50;;;;;;5074161;28;19910;-57
2022/06/26 08:27:40;;;;;;;;;;;25.10;96.50;;;;;;5074062;28;19938;-57
2022/06/26 08:30:06;;;;;;;;;;;25.10;96.50;;;;;;5073381;28;19930;-57
2022/06/26 08:32:32;;;;;;;;;;;25.10;96.50;;;;;;5073154;28;19909;-56
2022/06/26 08:34:57;;;;;;;;;;;25.20;96.50;;;;;;5072271;28;20278;-57
2022/06/26 08:37:23;;;;;;;;;;;25.10;96.40;;;;;;5073315;28;19995;-55
2022/06/26 08:39:48;;;;;;;;;;;25.10;96.40;;;;;;5073594;28;20011;-57
2022/06/26 08:42:14;;;;;;;;;;;25.10;96.40;;;;;;5057831;28;19916;-55
2022/06/26 08:44:45;;;;;;;;;;;25.10;96.40;;;;;;5077549;28;19915;-57
2022/06/26 08:47:11;;;;;;;;;;;25.10;96.40;;;;;;5077571;28;20051;-55
2022/06/26 08:49:37;;;;;;;;;;;25.20;96.50;;;;;;5077481;28;19908;-56
2022/06/26 08:52:03;;;;;;;;;;;25.10;96.40;;;;;;5076891;28;19909;-58
2022/06/26 08:54:29;;;;;;;;;;;25.10;96.40;;;;;;5077724;28;20003;-58
2022/06/26 08:56:55;;;;;;;;;;;25.10;96.40;;;;;;5077264;28;20301;-55
2022/06/26 08:59:20;;;;;;;;;;;25.10;96.40;;;;;;5077093;28;19973;-55
2022/06/26 09:01:46;;;;;;;;;;;25.20;96.40;;;;;;5059309;28;20059;-57
2022/06/26 09:04:12;;;;;;;;;;;25.20;96.40;;;;;;5077074;28;19908;-55
2022/06/26 09:06:38;;;;;;;;;;;25.10;96.40;;;;;;5077228;28;19912;-57
2022/06/26 09:09:12;;;;;;;;;;;25.10;96.40;;;;;;5077112;28;19909;-53
2022/06/26 09:11:38;;;;;;;;;;;25.20;96.50;;;;;;5077188;28;19915;-57
2022/06/26 09:14:04;;;;;;;;;;;25.10;96.40;;;;;;5077075;28;19913;-55
2022/06/26 09:16:31;;;;;;;;;;;25.20;96.50;;;;;;5076613;28;20003;-57
2022/06/26 09:19:05;;;;;;;;;;;25.10;96.40;;;;;;5076544;28;19983;-56
2022/06/26 09:21:30;;;;;;;;;;;25.20;96.50;;;;;;5076757;28;19918;-57
2022/06/26 09:23:56;;;;;;;;;;;25.10;96.40;;;;;;5077159;28;19948;-54
2022/06/26 09:26:21;;;;;;;;;;;25.10;96.40;;;;;;5076274;28;19908;-56
2022/06/26 09:28:47;;;;;;;;;;;25.10;96.40;;;;;;5076576;28;19915;-56
2022/06/26 09:31:18;;;;;;;;;;;25.20;96.50;;;;;;5076306;28;19959;-56
2022/06/26 09:33:44;;;;;;;;;;;25.20;96.50;;;;;;5075456;28;19912;-56
2022/06/26 09:36:13;;;;;;;;;;;25.20;96.50;;;;;;5058646;28;20411;-55
2022/06/26 09:38:39;;;;;;;;;;;25.20;96.50;;;;;;5076453;28;19913;-56
2022/06/26 09:41:05;;;;;;;;;;;25.20;96.50;;;;;;5074795;28;19913;-56
2022/06/26 09:43:35;;;;;;;;;;;25.10;96.50;;;;;;5076156;28;19913;-56
2022/06/26 09:46:02;;;;;;;;;;;25.20;96.50;;;;;;5076407;28;19999;-57
2022/06/26 09:48:28;;;;;;;;;;;25.20;96.50;;;;;;5076319;28;20013;-56
2022/06/26 09:50:54;;;;;;;;;;;25.20;96.50;;;;;;5076334;28;19909;-56
2022/06/26 09:53:20;;;;;;;;;;;25.20;96.50;;;;;;5074818;28;19916;-55
2022/06/26 09:55:46;;;;;;;;;;;25.20;96.50;;;;;;5075435;28;20248;-54
2022/06/26 09:58:12;;;;;;;;;;;25.20;96.50;;;;;;5076324;28;20015;-57
2022/06/26 10:00:38;;;;;;;;;;;25.20;96.40;;;;;;5057942;28;19982;-57
2022/06/26 10:08:35;;;;;;;;;;;25.20;96.40;;;;;;5076232;28;20405;-55
2022/06/26 10:11:01;;;;;;;;;;;25.20;96.40;;;;;;5075814;28;19909;-56
2022/06/26 10:13:28;;;;;;;;;;;25.20;96.40;;;;;;5075779;28;20243;-55
2022/06/26 10:15:59;;;;;;;;;;;25.20;96.40;;;;;;5075582;28;19908;-54
2022/06/26 10:18:43;;;;;;;;;;;25.20;96.40;;;;;;5075592;28;19924;-57
2022/06/26 10:21:10;;;;;;;;;;;25.20;96.40;;;;;;5075683;28;19912;-56
2022/06/26 10:23:36;;;;;;;;;;;25.20;96.40;;;;;;5075396;28;20358;-55
2022/06/26 10:26:12;;;;;;;;;;;25.20;96.40;;;;;;5074256;28;19908;-57
2022/06/26 10:28:53;;;;;;;;;;;25.20;96.40;;;;;;5075415;28;19908;-57
2022/06/26 10:31:19;;;;;;;;;;;25.20;96.40;;;;;;5075358;28;19912;-56
2022/06/26 10:33:48;;;;;;;;;;;25.20;96.40;;;;;;5075609;28;20346;-54
2022/06/26 10:36:20;;;;;;;;;;;25.20;96.40;;;;;;5075392;28;20440;-60
2022/06/26 10:38:45;;;;;;;;;;;25.20;96.40;;;;;;5075212;28;19913;-61
2022/06/26 10:44:02;;;;;;;;;;;25.20;96.40;;;;;;5075609;28;19916;-59
2022/06/26 10:46:58;;;;;;;;;;;25.20;96.40;;;;;;5075320;28;19909;-60
2022/06/26 10:49:23;;;;;;;;;;;25.20;96.40;;;;;;5073831;28;19908;-60
2022/06/26 10:51:49;;;;;;;;;;;25.20;96.40;;;;;;5075319;28;20385;-59
2022/06/26 10:54:35;;;;;;;;;;;25.20;96.40;;;;;;5075140;28;19955;-60
2022/06/26 10:57:13;;;;;;;;;;;25.20;96.40;;;;;;5074990;28;19920;-60
2022/06/26 10:59:40;;;;;;;;;;;25.20;96.40;;;;;;5074999;28;19913;-60
2022/06/26 11:02:06;;;;;;;;;;;25.20;96.40;;;;;;5074697;28;19909;-60
2022/06/26 11:04:31;;;;;;;;;;;25.20;96.40;;;;;;5074275;28;19909;-61
2022/06/26 11:06:57;;;;;;;;;;;25.20;96.40;;;;;;5074650;28;19915;-60
2022/06/26 11:09:22;;;;;;;;;;;25.20;96.40;;;;;;5074506;28;20011;-60
2022/06/26 11:11:50;;;;;;;;;;;25.20;96.40;;;;;;5056922;28;19913;-60
2022/06/26 11:14:16;;;;;;;;;;;25.20;96.40;;;;;;5074784;28;19908;-60
2022/06/26 11:16:45;;;;;;;;;;;25.20;96.40;;;;;;5074721;28;19912;-60
2022/06/26 11:19:23;;;;;;;;;;;25.20;96.40;;;;;;5074769;28;19920;-60
2022/06/26 11:21:48;;;;;;;;;;;25.20;96.40;;;;;;5072973;28;20321;-59
2022/06/26 11:24:14;;;;;;;;;;;25.20;96.40;;;;;;5074646;28;19912;-60
2022/06/26 11:26:39;;;;;;;;;;;25.30;96.40;;;;;;5074399;28;20283;-60
2022/06/26 11:29:08;;;;;;;;;;;25.20;96.30;;;;;;5074244;28;19939;-60
2022/06/26 11:31:34;;;;;;;;;;;25.30;96.40;;;;;;5074450;28;19909;-60
2022/06/26 11:34:13;;;;;;;;;;;25.20;96.30;;;;;;5074909;28;20003;-60
2022/06/26 11:36:49;;;;;;;;;;;25.20;96.30;;;;;;5056469;28;19933;-60
2022/06/26 11:39:15;;;;;;;;;;;25.20;96.30;;;;;;5074210;28;20288;-59
2022/06/26 11:41:40;;;;;;;;;;;25.20;96.30;;;;;;5074405;28;19915;-59
2022/06/26 11:44:06;;;;;;;;;;;25.20;96.40;;;;;;5056380;28;19916;-60
2022/06/26 11:46:31;;;;;;;;;;;25.20;96.40;;;;;;5074330;28;19909;-61
2022/06/26 11:48:57;;;;;;;;;;;25.20;96.40;;;;;;5073699;28;19908;-60
2022/06/26 11:51:22;;;;;;;;;;;25.20;96.30;;;;;;5073826;28;19912;-60
2022/06/26 11:53:49;;;;;;;;;;;25.20;96.30;;;;;;5073991;28;19909;-60
2022/06/26 11:56:33;;;;;;;;;;;25.20;96.40;;;;;;5073655;28;20396;-60
2022/06/26 11:58:59;;;;;;;;;;;25.20;96.30;;;;;;5074081;28;19913;-60
2022/06/26 12:01:35;;;;;;;;;;;25.20;96.30;;;;;;5074180;28;19917;-61
2022/06/26 12:04:00;;;;;;;;;;;25.20;96.40;;;;;;5074174;28;19909;-60
2022/06/26 12:06:32;;;;;;;;;;;25.20;96.30;;;;;;5074091;28;19908;-60
2022/06/26 12:09:02;;;;;;;;;;;25.20;96.30;;;;;;5073955;28;19995;-60
2022/06/26 12:11:28;;;;;;;;;;;25.20;96.30;;;;;;5074190;28;19908;-60
2022/06/26 12:13:54;;;;;;;;;;;25.20;96.30;;;;;;5073945;28;20286;-60
2022/06/26 12:16:19;;;;;;;;;;;25.20;96.50;;;;;;5072923;28;19909;-60
2022/06/26 12:18:47;;;;;;;;;;;25.20;96.30;;;;;;5073671;28;19912;-60
2022/06/26 12:21:14;;;;;;;;;;;25.20;96.30;;;;;;5073640;28;19912;-60
2022/06/26 12:23:41;;;;;;;;;;;25.20;96.30;;;;;;5073791;28;19909;-60
2022/06/26 12:26:10;;;;;;;;;;;25.20;96.30;;;;;;5074239;28;20275;-60
2022/06/26 12:28:49;;;;;;;;;;;25.30;96.30;;;;;;5073871;28;19920;-60
2022/06/26 12:31:15;;;;;;;;;;;25.20;96.30;;;;;;5073886;28;20387;-60
2022/06/26 12:33:41;;;;;;;;;;;25.20;96.30;;;;;;5073535;28;19909;-60
2022/06/26 12:36:07;;;;;;;;;;;25.20;96.30;;;;;;5073371;28;19996;-60
2022/06/26 12:38:33;;;;;;;;;;;25.20;96.30;;;;;;5073488;28;19924;-60
2022/06/26 12:40:58;;;;;;;;;;;25.20;96.30;;;;;;5073600;28;19983;-60
2022/06/26 12:43:24;;;;;;;;;;;25.20;96.30;;;;;;5055582;28;19912;-60
2022/06/26 12:45:49;;;;;;;;;;;25.20;96.30;;;;;;5073629;28;19977;-60
2022/06/26 12:48:14;;;;;;;;;;;25.20;96.30;;;;;;5073488;28;19999;-60
2022/06/26 12:50:40;;;;;;;;;;;25.20;96.30;;;;;;5073397;28;19954;-60
2022/06/26 12:53:06;;;;;;;;;;;25.20;96.30;;;;;;5072424;28;19999;-60
2022/06/26 12:55:31;;;;;;;;;;;25.20;96.30;;;;;;5073615;28;19915;-61
2022/06/26 12:57:57;;;;;;;;;;;25.20;96.30;;;;;;5073826;28;20019;-60
2022/06/26 13:00:22;;;;;;;;;;;25.30;96.30;;;;;;5073095;28;20271;-59
2022/06/26 13:02:48;;;;;;;;;;;25.30;96.30;;;;;;5073361;28;19948;-60
2022/06/26 13:05:13;;;;;;;;;;;25.20;96.30;;;;;;5073426;28;19909;-59
2022/06/26 13:07:39;;;;;;;;;;;25.20;96.30;;;;;;5073228;28;19909;-60
2022/06/26 13:10:04;;;;;;;;;;;25.20;96.30;;;;;;5073296;28;19919;-61
2022/06/26 13:12:30;;;;;;;;;;;25.20;96.30;;;;;;5072036;28;19908;-61
2022/06/26 13:14:55;;;;;;;;;;;25.30;96.30;;;;;;5072934;28;19959;-62
2022/06/26 13:17:21;;;;;;;;;;;25.30;96.30;;;;;;5072944;28;19916;-61
2022/06/26 13:19:46;;;;;;;;;;;25.30;96.30;;;;;;5073297;28;19909;-61
2022/06/26 13:22:12;;;;;;;;;;;25.30;96.30;;;;;;5073417;28;19908;-61
2022/06/26 13:24:37;;;;;;;;;;;25.30;96.30;;;;;;5073316;28;20000;-62
2022/06/26 13:27:03;;;;;;;;;;;25.30;96.30;;;;;;5055693;28;19913;-62
2022/06/26 13:29:29;;;;;;;;;;;25.30;96.30;;;;;;5076822;28;19908;-61
2022/06/26 13:31:54;;;;;;;;;;;25.20;96.20;;;;;;5076807;28;19912;-61
2022/06/26 13:34:20;;;;;;;;;;;25.30;96.30;;;;;;5076507;28;19909;-61
2022/06/26 13:36:45;;;;;;;;;;;25.30;96.30;;;;;;5076782;28;20362;-61
2022/06/26 13:39:11;;;;;;;;;;;25.30;96.30;;;;;;5076371;28;19995;-61
2022/06/26 13:41:36;;;;;;;;;;;25.30;96.30;;;;;;5076695;28;20385;-59
2022/06/26 13:44:02;;;;;;;;;;;25.30;96.30;;;;;;5076670;28;19908;-59
2022/06/26 13:46:28;;;;;;;;;;;25.30;96.30;;;;;;5076579;28;19909;-59
2022/06/26 13:48:53;;;;;;;;;;;25.30;96.30;;;;;;5076354;28;19916;-59
2022/06/26 13:51:19;;;;;;;;;;;25.30;96.30;;;;;;5076373;28;19950;-60
2022/06/26 13:53:45;;;;;;;;;;;25.30;96.30;;;;;;5076422;28;19920;-60
2022/06/26 13:56:10;;;;;;;;;;;25.30;96.20;;;;;;5076297;28;19924;-60
2022/06/26 13:58:36;;;;;;;;;;;25.30;96.20;;;;;;5076400;28;19917;-60
2022/06/26 14:01:04;;;;;;;;;;;25.30;96.20;;;;;;5076292;28;20348;-60
2022/06/26 14:03:30;;;;;;;;;;;25.30;96.20;;;;;;5076013;28;19909;-60
2022/06/26 14:05:55;;;;;;;;;;;25.30;96.30;;;;;;5076296;28;20351;-60
2022/06/26 14:08:21;;;;;;;;;;;25.30;96.20;;;;;;5075753;28;19913;-60
2022/06/26 14:10:46;;;;;;;;;;;25.30;96.20;;;;;;5076057;28;19908;-60
2022/06/26 14:13:12;;;;;;;;;;;25.30;96.20;;;;;;5057912;28;19988;-61
2022/06/26 14:15:37;;;;;;;;;;;25.30;96.20;;;;;;5075960;28;19912;-61
2022/06/26 14:18:03;;;;;;;;;;;25.30;96.20;;;;;;5075807;28;20267;-61
2022/06/26 14:20:28;;;;;;;;;;;25.30;96.20;;;;;;5076016;28;19908;-61
2022/06/26 14:25:56;;;;;;;;;;;25.30;96.20;;;;;;5075557;28;20011;-61
2022/06/26 14:28:22;;;;;;;;;;;25.30;96.20;;;;;;5075451;28;19909;-61